Flight Track Log - Related Links

Times and Time Zones

All times are in EDT time to prevent confusion due to time zone crossing. See the UAL4336 flight status page for this flight to view local times or setup timezone preferences in your user account.

Time Position Orientation Groundspeed Altitude Reporting Facility
EDT Latitude Longitude Course Direction KTS MPH feet Rate Location/Type
Sun 02:42:49 PM 40.8000 -73.8667 275° West 143 165 1,100  Level New York TRACON
Sun 02:43:49 PM 40.8500 -73.8833 346° North 193 222 3,300 2,452 Climbing New York TRACON
Sun 02:44:44 PM 40.8833 -73.9167 323° Northwest 230 265 5,800 3,130 Climbing New York TRACON
Sun 02:45:00 PM 40.8168 -74.2184 277° West  Level FlightAware Approximate
Sun 02:45:44 PM 40.9000 -74.0000 285° West 213 245 9,300  Level New York TRACON
Sun 02:46:00 PM 40.8279 -74.3404 277° West  Level FlightAware Approximate
Sun 02:46:44 PM 40.9000 -74.0833 270° West 243 280 11,100  Level New York TRACON
Sun 02:47:00 PM 40.8378 -74.4626 275° West  Level FlightAware Approximate
Sun 02:47:44 PM 40.9000 -74.1833 270° West 274 315 13,000  Level New York TRACON
Sun 02:48:43 PM 40.9000 -74.2833 270° West 288 331 14,600 1,436 Climbing New York TRACON
Sun 02:49:41 PM 40.9064 -74.3842 275° West 303 349 15,800 1,190 Climbing New York Center
Sun 02:50:39 PM 40.9106 -74.5161 272° West 317 365 16,900 605 Climbing New York Center
Sun 02:51:40 PM 40.9114 -74.6178 271° West 317 365 17,000 49 Climbing New York Center
Sun 02:52:41 PM 40.9117 -74.7358 270° West 324 373 17,000  Level New York Center
Sun 02:53:39 PM 40.9158 -74.8569 273° West 334 384 17,000 508 Level New York Center
Sun 02:54:39 PM 40.9158 -74.9778 270° West 329 379 18,000 1,289 Climbing New York Center
Sun 02:55:40 PM 40.9164 -75.0794 270° West 321 369 19,600 1,672 Climbing New York Center
Sun 02:56:41 PM 40.9100 -75.1917 266° West 315 362 21,400 1,815 Climbing New York Center
Sun 02:57:39 PM 40.8867 -75.3136 256° West 315 362 23,200 1,815 Climbing New York Center
Sun 02:58:40 PM 40.8639 -75.4164 254° West 310 357 25,000 1,785 Climbing New York Center
Sun 02:59:40 PM 40.8389 -75.5217 253° West 305 351 26,800 1,800 Climbing New York Center
Sun 03:00:40 PM 40.8164 -75.6189 253° West 293 337 28,600 1,785 Climbing New York Center
Sun 03:01:41 PM 40.7936 -75.7103 252° West 277 319 30,400 1,400 Climbing New York Center
Sun 03:02:40 PM 40.7731 -75.8022 254° West 272 313 31,400 800 Climbing New York Center
Sun 03:03:41 PM 40.7483 -75.8961 251° West 272 313 32,000 303 Climbing New York Center
Sun 03:04:39 PM 40.7228 -76.0039 253° West 289 333 32,000  Level New York Center
Sun 03:05:41 PM 40.6947 -76.1167 252° West 305 351 32,000  Level New York Center
Sun 03:06:41 PM 40.6686 -76.2322 253° West 323 372 32,000  Level New York Center
Sun 03:07:39 PM 40.6800 -76.3481 277° West 323 372 32,000  Level New York Center
Sun 03:08:40 PM 40.6992 -76.4700 282° West 333 383 32,000  Level New York Center
Sun 03:09:42 PM 40.7181 -76.5950 281° West 340 391 32,000  Level New York Center
Sun 03:10:40 PM 40.7350 -76.7169 280° West 340 391 32,000  Level New York Center
Sun 03:11:40 PM 40.7539 -76.8364 282° West 340 391 32,000  Level New York Center
Sun 03:12:41 PM 40.7703 -76.9611 280° West 340 391 32,000  Level New York Center
Sun 03:13:40 PM 40.7889 -77.0836 281° West 340 391 32,000  Level New York Center
Sun 03:14:40 PM 40.8075 -77.2006 282° West 340 391 32,000  Level New York Center
Sun 03:15:41 PM 40.8239 -77.3225 280° West 340 391 32,000  Level New York Center
Sun 03:16:40 PM 40.8386 -77.4311 280° West 335 386 32,000  Level New York Center
Sun 03:18:24 PM 40.8692 -77.6464 281° West 337 388 32,000  Level Cleveland Center
Sun 03:19:26 PM 40.8858 -77.7697 280° West 338 389 32,000  Level Cleveland Center
Sun 03:20:28 PM 40.9028 -77.8936 280° West 340 391 32,000  Level Cleveland Center
Sun 03:21:30 PM 40.9239 -78.0439 281° West 344 396 32,000  Level Cleveland Center
Sun 03:22:33 PM 40.9444 -78.1675 282° West 344 396 32,000  Level Cleveland Center
Sun 03:23:35 PM 40.9656 -78.2931 283° West 344 396 32,000  Level Cleveland Center
Sun 03:24:37 PM 40.9856 -78.4158 282° West 344 396 32,000  Level Cleveland Center
Sun 03:25:39 PM 41.0042 -78.5383 281° West 343 395 32,000  Level Cleveland Center
Sun 03:26:42 PM 41.0239 -78.6614 282° West 346 398 32,000  Level Cleveland Center
Sun 03:27:44 PM 41.0475 -78.8128 282° West 348 400 32,000  Level Cleveland Center
Sun 03:28:46 PM 41.0664 -78.9386 281° West 350 403 32,000  Level Cleveland Center
Sun 03:29:49 PM 41.0872 -79.0656 282° West 351 404 32,000 -480 Level Cleveland Center
Sun 03:30:51 PM 41.1061 -79.1911 281° West 351 404 31,000 -919 Descending Cleveland Center
Sun 03:31:53 PM 41.1236 -79.3161 281° West 349 402 30,100 -1,016 Descending Cleveland Center
Sun 03:32:55 PM 41.1492 -79.4733 282° West 364 419 28,900 -960 Descending Cleveland Center
Sun 03:33:58 PM 41.1703 -79.6053 282° West 366 421 28,100 -810 Descending Cleveland Center
Sun 03:35:01 PM 41.1925 -79.7472 282° West 370 426 27,200 -919 Descending Cleveland Center
Sun 03:36:02 PM 41.2133 -79.8839 281° West 376 433 26,200 -919 Descending Cleveland Center
Sun 03:37:05 PM 41.2322 -80.0106 281° West 376 433 25,300 -960 Descending Cleveland Center
Sun 03:38:07 PM 41.2572 -80.1686 282° West 371 427 24,200 -1,403 Descending Cleveland Center
Sun 03:39:09 PM 41.2761 -80.2989 281° West 366 421 22,400 -1,728 Descending Cleveland Center
Sun 03:40:12 PM 41.2944 -80.4250 281° West 351 404 20,600 -1,728 Descending Cleveland Center
Sun 03:41:14 PM 41.3136 -80.5511 281° West 347 399 18,800 -1,694 Descending Cleveland Center
Sun 03:42:16 PM 41.3339 -80.6792 282° West 349 402 17,100 -1,920 Descending Cleveland Center
Sun 03:43:19 PM 41.3844 -80.8117 297° West 346 398 14,800 -1,968 Descending Cleveland Center
Sun 03:44:21 PM 41.4258 -80.9219 297° West 334 384 13,000 -1,881 Descending Cleveland Center
Sun 03:44:26 PM 41.4303 -80.9336 297° West 328 377 12,700 -1,619 Descending Cleveland Center
Sun 03:45:24 PM 41.4664 -81.0294 297° West 328 377 11,300 -1,300 Descending Cleveland Center
Sun 03:46:26 PM 41.5061 -81.1353 297° West 323 372 10,100 -1,219 Descending Cleveland Center
Sun 03:46:28 PM 41.5086 -81.1461 287° West 315 362 10,000 -97 Descending Cleveland Center
Sun 03:47:28 PM 41.5033 -81.2569 266° West 305 351 10,000  Level Cleveland Center
Sun 03:47:29 PM 41.5056 -81.2478 72° East 312 359 10,000 -98 Level Cleveland Center
Sun 03:48:29 PM 41.4892 -81.3692 260° West 301 346 9,900  Descending Cleveland Center
Sun 03:48:31 PM 41.4881 -81.3753 256° West 303 349 10,000 -1,082 Climbing Cleveland Center
Sun 03:49:30 PM 41.4772 -81.4567 260° West 238 274 8,800 -1,161 Descending Cleveland Center
Sun 03:49:33 PM 41.4767 -81.4644 265° West 253 291 8,800 -800 Level Cleveland Center
Sun 03:50:30 PM 41.4644 -81.5522 260° West 251 289 8,000 -667 Descending Cleveland Center
Sun 03:50:36 PM 41.4639 -81.5583 263° West 252 290 8,100  Climbing Cleveland Center
Sun 03:51:19 PM 41.4428 -81.6297 248° West 268 308 8,000 -97 Descending Cleveland Center
Sun 03:51:38 PM 41.4367 -81.6503 248° West 267 307 8,000  Level Cleveland Center
Sun 03:52:38 PM 41.3989 -81.7428 241° Southwest 270 311 8,000 95 Level Cleveland Center
Sun 03:52:41 PM 41.4025 -81.7364 53° Northeast 268 308 8,100 -1,300 Climbing Cleveland Center
Sun 03:53:38 PM 41.3442 -81.8147 225° Southwest 268 308 6,700 -1,355 Descending Cleveland Center
Sun 03:53:43 PM 41.3425 -81.8167 221° Southwest 268 308 6,700 -1,967 Level Cleveland Center
Sun 03:54:39 PM 41.2908 -81.8894 227° Southwest 282 325 4,700 -1,935 Descending Cleveland Center
Sun 03:54:45 PM 41.2900 -81.8906 225° Southwest 269 310 4,700 -696 Level Cleveland Center
Sun 03:55:48 PM 41.2931 -81.9778 273° West 270 311 3,900 -990 Descending Cleveland Center
Sun 03:56:28 PM 41.3311 -81.9769 North 198 228 3,000 -1,065 Descending Cleveland Center
Sun 03:56:50 PM 41.3425 -81.9644 39° Northeast 220 253 2,800 -873 Descending Cleveland Center
Sun 03:57:23 PM 41.3578 -81.9394 51° Northeast 129 148 2,200 -762 Descending Cleveland Center
Sun 03:57:53 PM 41.3672 -81.9244 50° Northeast 162 186 2,000 -727 Descending Cleveland Center
Sun 03:58:29 PM 41.3825 -81.8989 51° Northeast 110 127 1,400 -762 Descending Cleveland Center
Sun 03:58:56 PM 41.3925 -81.8842 48° Northeast 130 150 1,200 -337 Descending Cleveland Center
Sun 03:59:58 PM 41.4144 -81.8497 50° Northeast 125 144 900 -290 Descending Cleveland Center

Login

Don't have an account? Register now (free) for customized features, flight alerts, and more!